sensor_id;sensor_type;location;lat;lon;timestamp;temperature;humidity
75281;HTU21D;63874;47.230;39.620;2023-03-31T00:01:36;0.93;93.10
75281;HTU21D;63874;47.230;39.620;2023-03-31T00:04:10;0.94;93.18
75281;HTU21D;63874;47.230;39.620;2023-03-31T00:06:39;0.93;93.20
75281;HTU21D;63874;47.230;39.620;2023-03-31T00:09:09;0.95;93.25
75281;HTU21D;63874;47.230;39.620;2023-03-31T00:11:36;0.95;93.27
75281;HTU21D;63874;47.230;39.620;2023-03-31T00:14:03;0.95;93.20
75281;HTU21D;63874;47.230;39.620;2023-03-31T00:16:36;0.94;93.19
75281;HTU21D;63874;47.230;39.620;2023-03-31T00:19:02;0.94;93.25
75281;HTU21D;63874;47.230;39.620;2023-03-31T00:21:29;0.94;93.32
75281;HTU21D;63874;47.230;39.620;2023-03-31T00:24:09;0.93;93.21
75281;HTU21D;63874;47.230;39.620;2023-03-31T00:26:39;0.90;93.13
75281;HTU21D;63874;47.230;39.620;2023-03-31T00:29:08;0.87;93.17
75281;HTU21D;63874;47.230;39.620;2023-03-31T00:31:34;0.86;93.21
75281;HTU21D;63874;47.230;39.620;2023-03-31T00:34:00;0.83;93.27
75281;HTU21D;63874;47.230;39.620;2023-03-31T00:36:27;0.81;93.39
75281;HTU21D;63874;47.230;39.620;2023-03-31T00:38:57;0.79;93.43
75281;HTU21D;63874;47.230;39.620;2023-03-31T00:41:26;0.80;93.49
75281;HTU21D;63874;47.230;39.620;2023-03-31T00:44:11;0.78;93.56
75281;HTU21D;63874;47.230;39.620;2023-03-31T00:46:51;0.76;93.63
75281;HTU21D;63874;47.230;39.620;2023-03-31T00:54:39;0.77;93.66
75281;HTU21D;63874;47.230;39.620;2023-03-31T00:57:07;0.77;93.56
75281;HTU21D;63874;47.230;39.620;2023-03-31T00:59:42;0.80;93.60
75281;HTU21D;63874;47.230;39.620;2023-03-31T01:02:11;0.80;93.67
75281;HTU21D;63874;47.230;39.620;2023-03-31T01:04:42;0.83;93.69
75281;HTU21D;63874;47.230;39.620;2023-03-31T01:07:17;0.87;93.70
75281;HTU21D;63874;47.230;39.620;2023-03-31T01:09:45;0.87;93.57
75281;HTU21D;63874;47.230;39.620;2023-03-31T01:12:15;0.84;93.49
75281;HTU21D;63874;47.230;39.620;2023-03-31T01:14:42;0.83;93.50
75281;HTU21D;63874;47.230;39.620;2023-03-31T01:17:08;0.86;93.56
75281;HTU21D;63874;47.230;39.620;2023-03-31T01:19:48;0.87;93.62
75281;HTU21D;63874;47.230;39.620;2023-03-31T01:28:41;0.93;93.72
75281;HTU21D;63874;47.230;39.620;2023-03-31T01:42:16;0.92;93.74
75281;HTU21D;63874;47.230;39.620;2023-03-31T01:45:12;0.90;93.69
75281;HTU21D;63874;47.230;39.620;2023-03-31T01:47:54;0.87;93.75
75281;HTU21D;63874;47.230;39.620;2023-03-31T01:50:38;0.91;93.83
75281;HTU21D;63874;47.230;39.620;2023-03-31T01:58:52;0.97;93.80
75281;HTU21D;63874;47.230;39.620;2023-03-31T02:03:53;1.09;93.98
75281;HTU21D;63874;47.230;39.620;2023-03-31T02:06:24;1.16;93.96
75281;HTU21D;63874;47.230;39.620;2023-03-31T02:09:05;1.23;93.99
75281;HTU21D;63874;47.230;39.620;2023-03-31T02:11:33;1.32;94.00
75281;HTU21D;63874;47.230;39.620;2023-03-31T02:14:03;1.38;94.01
75281;HTU21D;63874;47.230;39.620;2023-03-31T02:16:33;1.45;93.93
75281;HTU21D;63874;47.230;39.620;2023-03-31T02:19:03;1.41;93.62
75281;HTU21D;63874;47.230;39.620;2023-03-31T02:21:32;1.45;93.74
75281;HTU21D;63874;47.230;39.620;2023-03-31T02:24:02;1.52;93.89
75281;HTU21D;63874;47.230;39.620;2023-03-31T02:26:33;1.57;93.91
75281;HTU21D;63874;47.230;39.620;2023-03-31T02:29:01;1.64;93.92
75281;HTU21D;63874;47.230;39.620;2023-03-31T02:31:57;1.69;93.86
75281;HTU21D;63874;47.230;39.620;2023-03-31T02:34:25;1.72;93.83
75281;HTU21D;63874;47.230;39.620;2023-03-31T02:36:53;1.76;93.81
75281;HTU21D;63874;47.230;39.620;2023-03-31T02:39:27;1.78;93.75
75281;HTU21D;63874;47.230;39.620;2023-03-31T02:41:55;1.81;93.76
75281;HTU21D;63874;47.230;39.620;2023-03-31T02:44:22;1.83;93.77
75281;HTU21D;63874;47.230;39.620;2023-03-31T02:46:51;1.85;93.75
75281;HTU21D;63874;47.230;39.620;2023-03-31T02:49:17;1.88;93.73
75281;HTU21D;63874;47.230;39.620;2023-03-31T03:01:07;1.94;93.62
75281;HTU21D;63874;47.230;39.620;2023-03-31T03:17:53;2.16;93.85
75281;HTU21D;63874;47.230;39.620;2023-03-31T03:20:22;2.19;93.82
75281;HTU21D;63874;47.230;39.620;2023-03-31T03:22:49;2.21;93.76
75281;HTU21D;63874;47.230;39.620;2023-03-31T03:25:15;2.22;93.70
75281;HTU21D;63874;47.230;39.620;2023-03-31T03:27:45;2.23;93.68
75281;HTU21D;63874;47.230;39.620;2023-03-31T03:30:12;2.24;93.62
75281;HTU21D;63874;47.230;39.620;2023-03-31T03:32:39;2.25;93.62
75281;HTU21D;63874;47.230;39.620;2023-03-31T03:35:06;2.27;93.61
75281;HTU21D;63874;47.230;39.620;2023-03-31T03:37:32;2.24;93.48
75281;HTU21D;63874;47.230;39.620;2023-03-31T03:39:58;2.26;93.52
75281;HTU21D;63874;47.230;39.620;2023-03-31T03:42:24;2.28;93.55
75281;HTU21D;63874;47.230;39.620;2023-03-31T03:44:50;2.31;93.57
75281;HTU21D;63874;47.230;39.620;2023-03-31T03:47:16;2.29;93.63
75281;HTU21D;63874;47.230;39.620;2023-03-31T03:49:42;2.30;93.66
75281;HTU21D;63874;47.230;39.620;2023-03-31T03:52:08;2.29;93.71
75281;HTU21D;63874;47.230;39.620;2023-03-31T03:54:34;2.30;93.74
75281;HTU21D;63874;47.230;39.620;2023-03-31T03:57:00;2.32;93.77
75281;HTU21D;63874;47.230;39.620;2023-03-31T03:59:26;2.37;93.78
75281;HTU21D;63874;47.230;39.620;2023-03-31T04:01:51;2.38;93.82
75281;HTU21D;63874;47.230;39.620;2023-03-31T04:04:17;2.40;93.84
75281;HTU21D;63874;47.230;39.620;2023-03-31T04:06:43;2.41;93.86
75281;HTU21D;63874;47.230;39.620;2023-03-31T04:09:09;2.41;93.87
75281;HTU21D;63874;47.230;39.620;2023-03-31T04:11:35;2.43;93.82
75281;HTU21D;63874;47.230;39.620;2023-03-31T04:14:01;2.45;93.82
75281;HTU21D;63874;47.230;39.620;2023-03-31T04:16:27;2.46;93.85
75281;HTU21D;63874;47.230;39.620;2023-03-31T04:18:53;2.49;93.85
75281;HTU21D;63874;47.230;39.620;2023-03-31T04:21:23;2.49;93.84
75281;HTU21D;63874;47.230;39.620;2023-03-31T04:23:51;2.53;93.80
75281;HTU21D;63874;47.230;39.620;2023-03-31T04:26:25;2.57;93.79
75281;HTU21D;63874;47.230;39.620;2023-03-31T04:28:58;2.59;93.75
75281;HTU21D;63874;47.230;39.620;2023-03-31T04:31:27;2.60;93.68
75281;HTU21D;63874;47.230;39.620;2023-03-31T04:33:55;2.61;93.69
75281;HTU21D;63874;47.230;39.620;2023-03-31T04:36:30;2.66;93.73
75281;HTU21D;63874;47.230;39.620;2023-03-31T04:38:56;2.69;93.73
75281;HTU21D;63874;47.230;39.620;2023-03-31T04:41:23;2.73;93.75
75281;HTU21D;63874;47.230;39.620;2023-03-31T04:43:49;2.76;93.73
75281;HTU21D;63874;47.230;39.620;2023-03-31T04:46:15;2.80;93.71
75281;HTU21D;63874;47.230;39.620;2023-03-31T04:48:41;2.81;93.66
75281;HTU21D;63874;47.230;39.620;2023-03-31T04:51:07;2.83;93.64
75281;HTU21D;63874;47.230;39.620;2023-03-31T04:53:34;2.79;93.56
75281;HTU21D;63874;47.230;39.620;2023-03-31T04:56:00;2.76;93.43
75281;HTU21D;63874;47.230;39.620;2023-03-31T04:58:26;2.76;93.35
75281;HTU21D;63874;47.230;39.620;2023-03-31T05:00:52;2.74;93.34
75281;HTU21D;63874;47.230;39.620;2023-03-31T05:03:19;2.78;93.39
75281;HTU21D;63874;47.230;39.620;2023-03-31T05:05:45;2.79;93.42
75281;HTU21D;63874;47.230;39.620;2023-03-31T05:08:11;2.80;93.47
75281;HTU21D;63874;47.230;39.620;2023-03-31T05:10:37;2.84;93.56
75281;HTU21D;63874;47.230;39.620;2023-03-31T05:13:03;2.86;93.57
75281;HTU21D;63874;47.230;39.620;2023-03-31T05:15:29;2.89;93.58
75281;HTU21D;63874;47.230;39.620;2023-03-31T05:17:57;2.88;93.54
75281;HTU21D;63874;47.230;39.620;2023-03-31T05:20:23;2.87;93.50
75281;HTU21D;63874;47.230;39.620;2023-03-31T05:22:49;2.88;93.56
75281;HTU21D;63874;47.230;39.620;2023-03-31T05:25:15;2.91;93.66
75281;HTU21D;63874;47.230;39.620;2023-03-31T05:27:47;2.97;93.74
75281;HTU21D;63874;47.230;39.620;2023-03-31T05:30:15;3.01;93.84
75281;HTU21D;63874;47.230;39.620;2023-03-31T05:32:41;3.08;93.86
75281;HTU21D;63874;47.230;39.620;2023-03-31T05:35:07;3.10;93.82
75281;HTU21D;63874;47.230;39.620;2023-03-31T05:37:33;3.10;93.73
75281;HTU21D;63874;47.230;39.620;2023-03-31T05:39:59;3.12;93.67
75281;HTU21D;63874;47.230;39.620;2023-03-31T05:42:25;3.10;93.62
75281;HTU21D;63874;47.230;39.620;2023-03-31T05:44:51;3.08;93.58
75281;HTU21D;63874;47.230;39.620;2023-03-31T05:47:17;3.06;93.59
75281;HTU21D;63874;47.230;39.620;2023-03-31T05:49:43;3.05;93.58
75281;HTU21D;63874;47.230;39.620;2023-03-31T05:52:11;3.04;93.59
75281;HTU21D;63874;47.230;39.620;2023-03-31T05:54:36;3.02;93.56
75281;HTU21D;63874;47.230;39.620;2023-03-31T05:57:02;3.02;93.62
75281;HTU21D;63874;47.230;39.620;2023-03-31T05:59:28;3.02;93.66
75281;HTU21D;63874;47.230;39.620;2023-03-31T06:01:55;3.02;93.72
75281;HTU21D;63874;47.230;39.620;2023-03-31T06:04:21;3.06;93.86
75281;HTU21D;63874;47.230;39.620;2023-03-31T06:06:46;3.13;94.05
75281;HTU21D;63874;47.230;39.620;2023-03-31T06:09:15;3.24;94.25
75281;HTU21D;63874;47.230;39.620;2023-03-31T06:11:41;3.33;94.38
75281;HTU21D;63874;47.230;39.620;2023-03-31T06:14:07;3.44;94.49
75281;HTU21D;63874;47.230;39.620;2023-03-31T06:16:33;3.58;94.65
75281;HTU21D;63874;47.230;39.620;2023-03-31T06:18:59;3.67;94.53
75281;HTU21D;63874;47.230;39.620;2023-03-31T06:21:25;3.67;94.34
75281;HTU21D;63874;47.230;39.620;2023-03-31T06:23:51;3.72;94.36
75281;HTU21D;63874;47.230;39.620;2023-03-31T06:26:20;3.75;94.33
75281;HTU21D;63874;47.230;39.620;2023-03-31T06:28:47;3.75;94.20
75281;HTU21D;63874;47.230;39.620;2023-03-31T06:31:15;3.79;94.17
75281;HTU21D;63874;47.230;39.620;2023-03-31T06:33:42;3.90;94.39
75281;HTU21D;63874;47.230;39.620;2023-03-31T06:36:10;4.01;94.44
75281;HTU21D;63874;47.230;39.620;2023-03-31T06:38:37;4.03;94.28
75281;HTU21D;63874;47.230;39.620;2023-03-31T06:41:04;4.08;94.37
75281;HTU21D;63874;47.230;39.620;2023-03-31T06:43:31;4.07;94.18
75281;HTU21D;63874;47.230;39.620;2023-03-31T06:45:57;3.98;93.02
75281;HTU21D;63874;47.230;39.620;2023-03-31T06:48:24;3.97;90.65
75281;HTU21D;63874;47.230;39.620;2023-03-31T06:50:50;3.97;88.96
75281;HTU21D;63874;47.230;39.620;2023-03-31T06:53:17;3.95;87.74
75281;HTU21D;63874;47.230;39.620;2023-03-31T06:55:43;3.98;86.35
75281;HTU21D;63874;47.230;39.620;2023-03-31T06:58:09;3.97;86.28
75281;HTU21D;63874;47.230;39.620;2023-03-31T07:00:36;3.98;85.35
75281;HTU21D;63874;47.230;39.620;2023-03-31T07:03:03;3.98;83.84
75281;HTU21D;63874;47.230;39.620;2023-03-31T07:05:30;3.99;84.70
75281;HTU21D;63874;47.230;39.620;2023-03-31T07:07:57;4.07;83.54
75281;HTU21D;63874;47.230;39.620;2023-03-31T07:10:25;4.13;83.84
75281;HTU21D;63874;47.230;39.620;2023-03-31T07:12:51;4.17;83.20
75281;HTU21D;63874;47.230;39.620;2023-03-31T07:15:17;4.23;83.84
75281;HTU21D;63874;47.230;39.620;2023-03-31T07:17:44;4.34;84.41
75281;HTU21D;63874;47.230;39.620;2023-03-31T07:20:12;4.44;83.84
75281;HTU21D;63874;47.230;39.620;2023-03-31T07:22:43;4.46;84.32
75281;HTU21D;63874;47.230;39.620;2023-03-31T07:25:12;4.44;84.32
75281;HTU21D;63874;47.230;39.620;2023-03-31T07:27:38;4.44;83.84
75281;HTU21D;63874;47.230;39.620;2023-03-31T07:30:08;4.45;0.00
75281;HTU21D;63874;47.230;39.620;2023-03-31T07:32:34;4.44;0.00
75281;HTU21D;63874;47.230;39.620;2023-03-31T07:35:08;4.45;0.00
75281;HTU21D;63874;47.230;39.620;2023-03-31T07:37:35;4.50;82.49
75281;HTU21D;63874;47.230;39.620;2023-03-31T07:40:02;4.54;0.00
75281;HTU21D;63874;47.230;39.620;2023-03-31T07:42:31;0.00;81.88
75281;HTU21D;63874;47.230;39.620;2023-03-31T07:44:57;4.69;82.40
75281;HTU21D;63874;47.230;39.620;2023-03-31T07:47:23;4.76;80.91
75281;HTU21D;63874;47.230;39.620;2023-03-31T07:49:49;4.73;80.42
75281;HTU21D;63874;47.230;39.620;2023-03-31T07:52:16;0.00;0.00
75281;HTU21D;63874;47.230;39.620;2023-03-31T07:54:45;0.00;0.00
75281;HTU21D;63874;47.230;39.620;2023-03-31T07:57:11;0.00;0.00
75281;HTU21D;63874;47.230;39.620;2023-03-31T07:59:38;0.00;0.00
75281;HTU21D;63874;47.230;39.620;2023-03-31T08:02:04;0.00;0.00
75281;HTU21D;63874;47.230;39.620;2023-03-31T08:04:30;0.00;0.00
75281;HTU21D;63874;47.230;39.620;2023-03-31T08:06:56;0.00;0.00
75281;HTU21D;63874;47.230;39.620;2023-03-31T08:09:22;0.00;0.00
75281;HTU21D;63874;47.230;39.620;2023-03-31T08:11:48;0.00;0.00
75281;HTU21D;63874;47.230;39.620;2023-03-31T08:14:15;0.00;0.00
75281;HTU21D;63874;47.230;39.620;2023-03-31T08:16:41;0.00;0.00
75281;HTU21D;63874;47.230;39.620;2023-03-31T08:19:07;0.00;0.00
75281;HTU21D;63874;47.230;39.620;2023-03-31T08:21:34;0.00;0.00
75281;HTU21D;63874;47.230;39.620;2023-03-31T08:24:00;0.00;0.00
75281;HTU21D;63874;47.230;39.620;2023-03-31T08:26:25;0.00;0.00
75281;HTU21D;63874;47.230;39.620;2023-03-31T08:28:52;0.00;0.00
75281;HTU21D;63874;47.230;39.620;2023-03-31T08:31:19;0.00;0.00
75281;HTU21D;63874;47.230;39.620;2023-03-31T08:33:46;0.00;0.00
75281;HTU21D;63874;47.230;39.620;2023-03-31T08:36:13;0.00;0.00
75281;HTU21D;63874;47.230;39.620;2023-03-31T08:38:40;0.00;0.00
75281;HTU21D;63874;47.230;39.620;2023-03-31T08:43:49;0.00;0.00
75281;HTU21D;63874;47.230;39.620;2023-03-31T08:46:17;0.00;0.00
75281;HTU21D;63874;47.230;39.620;2023-03-31T08:48:47;0.00;0.00
75281;HTU21D;63874;47.230;39.620;2023-03-31T08:51:17;0.00;0.00
75281;HTU21D;63874;47.230;39.620;2023-03-31T08:53:49;0.00;0.00
75281;HTU21D;63874;47.230;39.620;2023-03-31T08:56:19;0.00;0.00
75281;HTU21D;63874;47.230;39.620;2023-03-31T08:58:48;0.00;0.00
75281;HTU21D;63874;47.230;39.620;2023-03-31T09:06:49;0.00;0.00
75281;HTU21D;63874;47.230;39.620;2023-03-31T09:12:38;0.00;0.00
75281;HTU21D;63874;47.230;39.620;2023-03-31T09:15:16;0.00;0.00
75281;HTU21D;63874;47.230;39.620;2023-03-31T09:17:48;0.00;0.00
75281;HTU21D;63874;47.230;39.620;2023-03-31T09:20:27;0.00;0.00
75281;HTU21D;63874;47.230;39.620;2023-03-31T09:23:01;0.00;0.00
75281;HTU21D;63874;47.230;39.620;2023-03-31T09:25:34;0.00;0.00
75281;HTU21D;63874;47.230;39.620;2023-03-31T09:28:02;0.00;0.00
75281;HTU21D;63874;47.230;39.620;2023-03-31T09:30:31;0.00;0.00
75281;HTU21D;63874;47.230;39.620;2023-03-31T09:33:14;0.00;0.00
75281;HTU21D;63874;47.230;39.620;2023-03-31T09:35:42;0.00;0.00
75281;HTU21D;63874;47.230;39.620;2023-03-31T09:38:13;0.00;0.00
75281;HTU21D;63874;47.230;39.620;2023-03-31T09:40:39;0.00;0.00
75281;HTU21D;63874;47.230;39.620;2023-03-31T09:43:09;0.00;0.00
75281;HTU21D;63874;47.230;39.620;2023-03-31T09:45:36;0.00;0.00
75281;HTU21D;63874;47.230;39.620;2023-03-31T09:48:06;12.06;55.37
75281;HTU21D;63874;47.230;39.620;2023-03-31T09:50:42;12.44;57.56
75281;HTU21D;63874;47.230;39.620;2023-03-31T09:53:17;12.90;55.09
75281;HTU21D;63874;47.230;39.620;2023-03-31T09:55:53;13.09;51.94
75281;HTU21D;63874;47.230;39.620;2023-03-31T09:58:21;13.04;51.08
75281;HTU21D;63874;47.230;39.620;2023-03-31T10:01:03;13.29;51.81
75281;HTU21D;63874;47.230;39.620;2023-03-31T10:03:31;13.45;49.67
75281;HTU21D;63874;47.230;39.620;2023-03-31T10:06:07;13.79;51.51
75281;HTU21D;63874;47.230;39.620;2023-03-31T10:08:40;14.17;47.12
75281;HTU21D;63874;47.230;39.620;2023-03-31T10:11:09;13.95;49.56
75281;HTU21D;63874;47.230;39.620;2023-03-31T10:13:49;14.12;50.63
75281;HTU21D;63874;47.230;39.620;2023-03-31T10:19:23;14.82;44.17
75281;HTU21D;63874;47.230;39.620;2023-03-31T10:22:31;15.09;40.21
75281;HTU21D;63874;47.230;39.620;2023-03-31T10:25:29;15.60;40.42
75281;HTU21D;63874;47.230;39.620;2023-03-31T10:27:56;16.03;38.41
75281;HTU21D;63874;47.230;39.620;2023-03-31T10:30:34;16.16;37.46
75281;HTU21D;63874;47.230;39.620;2023-03-31T10:33:25;16.14;36.71
75281;HTU21D;63874;47.230;39.620;2023-03-31T10:35:57;16.31;37.50
75281;HTU21D;63874;47.230;39.620;2023-03-31T10:38:30;16.43;36.09
75281;HTU21D;63874;47.230;39.620;2023-03-31T10:41:00;16.04;34.84
75281;HTU21D;63874;47.230;39.620;2023-03-31T10:43:29;16.05;34.57
75281;HTU21D;63874;47.230;39.620;2023-03-31T10:46:00;16.11;34.18
75281;HTU21D;63874;47.230;39.620;2023-03-31T10:48:30;16.36;34.25
75281;HTU21D;63874;47.230;39.620;2023-03-31T10:51:13;16.64;32.73
75281;HTU21D;63874;47.230;39.620;2023-03-31T10:54:00;16.77;31.77
75281;HTU21D;63874;47.230;39.620;2023-03-31T10:56:58;16.87;31.64
75281;HTU21D;63874;47.230;39.620;2023-03-31T11:10:36;17.35;29.90
75281;HTU21D;63874;47.230;39.620;2023-03-31T11:15:59;15.65;31.32
75281;HTU21D;63874;47.230;39.620;2023-03-31T11:26:48;10.51;38.25
75281;HTU21D;63874;47.230;39.620;2023-03-31T11:42:41;8.62;46.42
75281;HTU21D;63874;47.230;39.620;2023-03-31T11:45:15;8.52;47.42
75281;HTU21D;63874;47.230;39.620;2023-03-31T11:47:44;8.46;48.12
75281;HTU21D;63874;47.230;39.620;2023-03-31T11:50:15;8.41;46.67
75281;HTU21D;63874;47.230;39.620;2023-03-31T11:52:49;8.34;46.51
75281;HTU21D;63874;47.230;39.620;2023-03-31T11:55:19;8.30;48.07
75281;HTU21D;63874;47.230;39.620;2023-03-31T11:57:58;8.26;49.23
75281;HTU21D;63874;47.230;39.620;2023-03-31T12:00:33;8.19;49.56
75281;HTU21D;63874;47.230;39.620;2023-03-31T12:06:00;8.18;47.97
75281;HTU21D;63874;47.230;39.620;2023-03-31T12:08:32;8.13;48.43
75281;HTU21D;63874;47.230;39.620;2023-03-31T12:11:07;8.12;48.89
75281;HTU21D;63874;47.230;39.620;2023-03-31T12:13:58;8.14;48.67
75281;HTU21D;63874;47.230;39.620;2023-03-31T12:16:28;8.18;46.68
75281;HTU21D;63874;47.230;39.620;2023-03-31T12:21:34;8.15;46.09
75281;HTU21D;63874;47.230;39.620;2023-03-31T12:24:01;8.14;44.93
75281;HTU21D;63874;47.230;39.620;2023-03-31T12:29:28;8.11;46.01
75281;HTU21D;63874;47.230;39.620;2023-03-31T12:31:55;8.11;47.02
75281;HTU21D;63874;47.230;39.620;2023-03-31T12:34:22;8.08;48.00
75281;HTU21D;63874;47.230;39.620;2023-03-31T12:50:46;8.07;50.17
75281;HTU21D;63874;47.230;39.620;2023-03-31T12:56:05;8.09;50.65
75281;HTU21D;63874;47.230;39.620;2023-03-31T12:58:39;8.11;50.60
75281;HTU21D;63874;47.230;39.620;2023-03-31T13:01:23;8.09;50.59
75281;HTU21D;63874;47.230;39.620;2023-03-31T13:08:59;8.08;51.48
75281;HTU21D;63874;47.230;39.620;2023-03-31T13:11:35;8.08;51.48
75281;HTU21D;63874;47.230;39.620;2023-03-31T13:14:21;8.13;51.11
75281;HTU21D;63874;47.230;39.620;2023-03-31T13:16:49;8.14;51.14
75281;HTU21D;63874;47.230;39.620;2023-03-31T13:19:35;8.13;51.54
75281;HTU21D;63874;47.230;39.620;2023-03-31T13:22:02;8.12;51.20
75281;HTU21D;63874;47.230;39.620;2023-03-31T13:24:30;8.15;51.16
75281;HTU21D;63874;47.230;39.620;2023-03-31T13:26:58;8.15;51.16
75281;HTU21D;63874;47.230;39.620;2023-03-31T13:29:39;8.18;50.28
75281;HTU21D;63874;47.230;39.620;2023-03-31T13:40:54;8.18;49.69
75281;HTU21D;63874;47.230;39.620;2023-03-31T13:43:43;8.24;49.21
75281;HTU21D;63874;47.230;39.620;2023-03-31T13:51:40;8.30;50.53
75281;HTU21D;63874;47.230;39.620;2023-03-31T13:54:55;8.31;50.79
75281;HTU21D;63874;47.230;39.620;2023-03-31T14:00:24;8.39;51.46
75281;HTU21D;63874;47.230;39.620;2023-03-31T14:06:26;8.42;52.18
75281;HTU21D;63874;47.230;39.620;2023-03-31T14:09:46;8.43;52.65
75281;HTU21D;63874;47.230;39.620;2023-03-31T14:11:53;8.43;52.96
75281;HTU21D;63874;47.230;39.620;2023-03-31T14:14:19;8.41;53.23
75281;HTU21D;63874;47.230;39.620;2023-03-31T14:27:36;8.35;55.17
75281;HTU21D;63874;47.230;39.620;2023-03-31T14:36:38;8.26;55.65
75281;HTU21D;63874;47.230;39.620;2023-03-31T14:39:08;8.21;55.91
75281;HTU21D;63874;47.230;39.620;2023-03-31T14:41:35;8.19;56.01
75281;HTU21D;63874;47.230;39.620;2023-03-31T14:44:05;8.17;56.18
75281;HTU21D;63874;47.230;39.620;2023-03-31T14:46:36;8.15;56.36
75281;HTU21D;63874;47.230;39.620;2023-03-31T14:49:20;8.15;56.58
75281;HTU21D;63874;47.230;39.620;2023-03-31T14:51:46;8.15;56.61
75281;HTU21D;63874;47.230;39.620;2023-03-31T14:54:18;8.11;56.90
75281;HTU21D;63874;47.230;39.620;2023-03-31T14:56:48;8.11;57.01
75281;HTU21D;63874;47.230;39.620;2023-03-31T14:59:29;8.09;57.26
75281;HTU21D;63874;47.230;39.620;2023-03-31T15:01:58;8.11;57.41
75281;HTU21D;63874;47.230;39.620;2023-03-31T15:04:28;8.09;57.55
75281;HTU21D;63874;47.230;39.620;2023-03-31T15:06:55;8.07;57.77
75281;HTU21D;63874;47.230;39.620;2023-03-31T15:09:28;8.07;57.80
75281;HTU21D;63874;47.230;39.620;2023-03-31T15:11:56;8.06;58.00
75281;HTU21D;63874;47.230;39.620;2023-03-31T15:14:30;8.01;58.14
75281;HTU21D;63874;47.230;39.620;2023-03-31T15:16:59;7.99;58.41
75281;HTU21D;63874;47.230;39.620;2023-03-31T15:19:32;7.97;58.45
75281;HTU21D;63874;47.230;39.620;2023-03-31T15:22:10;7.98;58.48
75281;HTU21D;63874;47.230;39.620;2023-03-31T15:24:36;7.97;58.64
75281;HTU21D;63874;47.230;39.620;2023-03-31T15:29:56;7.97;58.81
75281;HTU21D;63874;47.230;39.620;2023-03-31T15:32:26;7.96;58.94
75281;HTU21D;63874;47.230;39.620;2023-03-31T15:34:54;7.97;59.03
75281;HTU21D;63874;47.230;39.620;2023-03-31T15:37:37;7.97;59.04
75281;HTU21D;63874;47.230;39.620;2023-03-31T15:42:43;7.96;59.18
75281;HTU21D;63874;47.230;39.620;2023-03-31T15:47:50;7.97;59.02
75281;HTU21D;63874;47.230;39.620;2023-03-31T15:50:17;7.97;58.85
75281;HTU21D;63874;47.230;39.620;2023-03-31T15:52:53;7.96;58.80
75281;HTU21D;63874;47.230;39.620;2023-03-31T15:55:31;7.98;58.62
75281;HTU21D;63874;47.230;39.620;2023-03-31T15:58:04;7.98;58.58
75281;HTU21D;63874;47.230;39.620;2023-03-31T16:03:01;7.93;58.19
75281;HTU21D;63874;47.230;39.620;2023-03-31T16:05:41;7.92;57.93
75281;HTU21D;63874;47.230;39.620;2023-03-31T16:08:27;7.91;57.94
75281;HTU21D;63874;47.230;39.620;2023-03-31T16:11:00;7.87;57.99
75281;HTU21D;63874;47.230;39.620;2023-03-31T16:13:29;7.86;58.16
75281;HTU21D;63874;47.230;39.620;2023-03-31T16:15:57;7.79;58.17
75281;HTU21D;63874;47.230;39.620;2023-03-31T16:18:47;7.74;58.19
75281;HTU21D;63874;47.230;39.620;2023-03-31T16:21:20;7.68;58.26
75281;HTU21D;63874;47.230;39.620;2023-03-31T16:23:51;7.63;58.38
75281;HTU21D;63874;47.230;39.620;2023-03-31T16:26:26;7.60;58.43
75281;HTU21D;63874;47.230;39.620;2023-03-31T16:28:54;7.55;58.58
75281;HTU21D;63874;47.230;39.620;2023-03-31T16:34:01;7.42;58.93
75281;HTU21D;63874;47.230;39.620;2023-03-31T16:36:28;7.32;59.22
75281;HTU21D;63874;47.230;39.620;2023-03-31T16:38:56;7.28;59.34
75281;HTU21D;63874;47.230;39.620;2023-03-31T16:41:24;7.26;59.44
75281;HTU21D;63874;47.230;39.620;2023-03-31T16:43:52;7.23;59.57
75281;HTU21D;63874;47.230;39.620;2023-03-31T16:46:20;7.20;59.68
75281;HTU21D;63874;47.230;39.620;2023-03-31T16:48:47;7.20;59.75
75281;HTU21D;63874;47.230;39.620;2023-03-31T16:51:13;7.18;59.84
75281;HTU21D;63874;47.230;39.620;2023-03-31T16:53:40;7.17;59.96
75281;HTU21D;63874;47.230;39.620;2023-03-31T16:56:07;7.17;60.05
75281;HTU21D;63874;47.230;39.620;2023-03-31T16:58:35;7.17;60.17
75281;HTU21D;63874;47.230;39.620;2023-03-31T17:01:03;7.18;60.22
75281;HTU21D;63874;47.230;39.620;2023-03-31T17:03:31;7.19;60.31
75281;HTU21D;63874;47.230;39.620;2023-03-31T17:06:07;7.18;60.47
75281;HTU21D;63874;47.230;39.620;2023-03-31T17:08:33;7.18;60.59
75281;HTU21D;63874;47.230;39.620;2023-03-31T17:11:01;7.18;60.75
75281;HTU21D;63874;47.230;39.620;2023-03-31T17:13:29;7.16;61.04
75281;HTU21D;63874;47.230;39.620;2023-03-31T17:15:55;7.18;61.15
75281;HTU21D;63874;47.230;39.620;2023-03-31T17:18:21;7.22;61.26
75281;HTU21D;63874;47.230;39.620;2023-03-31T17:20:47;7.24;61.50
75281;HTU21D;63874;47.230;39.620;2023-03-31T17:23:13;7.26;61.67
75281;HTU21D;63874;47.230;39.620;2023-03-31T17:25:46;7.29;61.92
75281;HTU21D;63874;47.230;39.620;2023-03-31T17:28:12;7.28;62.08
75281;HTU21D;63874;47.230;39.620;2023-03-31T17:30:38;7.30;62.28
75281;HTU21D;63874;47.230;39.620;2023-03-31T17:33:04;7.28;62.52
75281;HTU21D;63874;47.230;39.620;2023-03-31T17:35:30;7.27;62.73
75281;HTU21D;63874;47.230;39.620;2023-03-31T17:37:56;7.25;63.06
75281;HTU21D;63874;47.230;39.620;2023-03-31T17:40:23;7.26;63.37
75281;HTU21D;63874;47.230;39.620;2023-03-31T17:42:50;7.29;63.52
75281;HTU21D;63874;47.230;39.620;2023-03-31T17:45:17;7.27;63.83
75281;HTU21D;63874;47.230;39.620;2023-03-31T17:47:43;7.25;63.84
75281;HTU21D;63874;47.230;39.620;2023-03-31T17:50:11;7.26;64.08
75281;HTU21D;63874;47.230;39.620;2023-03-31T17:52:37;7.22;64.16
75281;HTU21D;63874;47.230;39.620;2023-03-31T17:55:04;7.22;64.47
75281;HTU21D;63874;47.230;39.620;2023-03-31T17:57:31;7.19;64.69
75281;HTU21D;63874;47.230;39.620;2023-03-31T17:59:57;7.19;64.92
75281;HTU21D;63874;47.230;39.620;2023-03-31T18:02:24;7.23;65.04
75281;HTU21D;63874;47.230;39.620;2023-03-31T18:04:50;7.25;65.11
75281;HTU21D;63874;47.230;39.620;2023-03-31T18:07:16;7.28;65.21
75281;HTU21D;63874;47.230;39.620;2023-03-31T18:09:43;7.31;65.35
75281;HTU21D;63874;47.230;39.620;2023-03-31T18:12:10;7.33;65.33
75281;HTU21D;63874;47.230;39.620;2023-03-31T18:14:36;7.33;65.49
75281;HTU21D;63874;47.230;39.620;2023-03-31T18:17:03;7.29;65.44
75281;HTU21D;63874;47.230;39.620;2023-03-31T18:19:31;7.28;65.56
75281;HTU21D;63874;47.230;39.620;2023-03-31T18:21:58;7.27;65.57
75281;HTU21D;63874;47.230;39.620;2023-03-31T18:24:24;7.25;65.59
75281;HTU21D;63874;47.230;39.620;2023-03-31T18:26:50;7.29;65.55
75281;HTU21D;63874;47.230;39.620;2023-03-31T18:29:16;7.33;65.50
75281;HTU21D;63874;47.230;39.620;2023-03-31T18:31:45;7.38;65.40
75281;HTU21D;63874;47.230;39.620;2023-03-31T18:34:11;7.39;65.37
75281;HTU21D;63874;47.230;39.620;2023-03-31T18:36:38;7.39;65.33
75281;HTU21D;63874;47.230;39.620;2023-03-31T18:39:04;7.42;65.32
75281;HTU21D;63874;47.230;39.620;2023-03-31T18:41:30;7.43;65.30